ADDS METAR Data INFO
IDs: Format: Raw Decoded Include TAF

Data at: 0714 UTC 24 Jun 2018

K7N0 240656Z AUTO 17006KT 10SM FEW019 29/25 A2996 RMK AO2 SLP143 T02890250
K7N0 240556Z AUTO 17006KT 10SM CLR 29/24 A2996 RMK AO2 SLP144 T02890244 10328 20289 50000
K7N0 240456Z AUTO 16006KT 10SM CLR 29/24 A2997 RMK AO2 SLP148 T02890244 403440272
K7N0 240356Z AUTO 18006KT 10SM CLR 30/24 A2998 RMK AO2 SLP150 T03000244 TSNO
K7N0 240256Z AUTO 19007KT 10SM CLR 31/24 A2996 RMK AO2 SLP144 T03060244 53017
K7N0 240156Z AUTO 18008KT 10SM CLR 31/24 A2993 RMK AO2 SLP136 T03110239
K7N0 240056Z AUTO 19009G15KT 10SM CLR 32/24 A2990 RMK AO2 SLP126 T03170239
K7N0 232356Z AUTO 20008G15KT 10SM CLR 33/23 A2991 RMK AO2 SLP128 T03280233 10344 20322 55008
K7N0 232256Z AUTO 18010G15KT 10SM CLR 34/23 A2990 RMK AO2 SLP124 T03390233
K7N0 232156Z AUTO 18007G15KT 10SM CLR 33/24 A2991 RMK AO2 SLP129 T03330239
K7N0 232056Z AUTO VRB06KT 10SM FEW035 34/24 A2993 RMK AO2 SLP135 T03390239 58016
K7N0 231956Z AUTO 19008KT 10SM SCT039 SCT048 BKN060 34/23 A2995 RMK AO2 SLP141 T03390233
K7N0 231856Z AUTO 21005G14KT 10SM SCT038 BKN050 BKN060 33/23 A2997 RMK AO2 SLP147 T03330233
K7N0 231756Z AUTO 19010G16KT 170V240 10SM FEW039 SCT049 BKN055 33/23 A2998 RMK AO2 SLP151 T03330228 10333 20278 58001
K7N0 231656Z AUTO 22011G14KT 10SM SCT035 SCT044 32/23 A2999 RMK AO2 SLP154 T03220233
K7N0 231556Z AUTO 22007KT 10SM FEW029 SCT040 BKN048 32/23 A2999 RMK AO2 SLP154 T03170233
K7N0 231456Z AUTO 20008G14KT 10SM SCT023 BKN036 31/24 A2998 RMK AO2 SLP152 T03110239 51004
K7N0 231454Z AUTO 19008G14KT 10SM SCT023 BKN036 31/24 A2998 RMK AO2
K7N0 231356Z AUTO 21006KT 10SM BKN017 30/24 A2998 RMK AO2 SLP150 T03000244
K7N0 231342Z AUTO VRB06KT 10SM BKN017 29/24 A2997 RMK AO2
K7N0 231256Z AUTO 22006KT 10SM CLR 29/24 A2997 RMK AO2 SLP148 T02890244
K7N0 231156Z AUTO VRB04KT 10SM CLR 28/24 A2995 RMK AO2 SLP143 T02780244 10289 20272 53011
K7N0 231056Z AUTO 20004KT 10SM CLR 28/24 A2994 RMK AO2 SLP138 T02780244 TSNO
K7N0 230956Z AUTO 21004KT 10SM SCT023 28/24 A2993 RMK AO2 SLP135 T02780244
K7N0 230856Z AUTO 20005KT 10SM FEW022 28/24 A2992 RMK AO2 SLP132 T02830239 53001
K7N0 230756Z AUTO 20003KT 10SM SCT020 28/24 A2992 RMK AO2 SLP130 T02830244
K7N0 230721Z AUTO 19004KT 10SM FEW020 28/24 A2992 RMK AO2
K7N0 230656Z AUTO 19005KT 10SM BKN018 BKN024 BKN028 29/24 A2991 RMK AO2 SLP129 T02890239
K7N0 230637Z AUTO 19004KT 10SM BKN022 BKN028 28/24 A2991 RMK AO2
K7N0 230556Z AUTO 21004KT 10SM CLR 28/24 A2992 RMK AO2 SLP131 T02830239 10328 20283 53002
K7N0 230456Z AUTO 20006KT 10SM CLR 29/23 A2991 RMK AO2 SLP128 T02890233 403440267
K7N0 230356Z AUTO 19005KT 10SM CLR 29/23 A2991 RMK AO2 SLP129 T02940233
K7N0 230256Z AUTO 21006KT 10SM CLR 29/23 A2991 RMK AO2 SLP129 T02890228 51014
K7N0 230156Z AUTO 21006KT 10SM CLR 29/23 A2991 RMK AO2 SLP126 T02940228
K7N0 230056Z AUTO VRB06KT 10SM CLR 32/23 A2988 RMK AO2 SLP119 T03170228
K7N0 222356Z AUTO 21009G14KT 10SM CLR 33/21 A2987 RMK AO2 SLP115 T03280211 10344 20322 56008
K7N0 222256Z AUTO 21009G15KT 10SM CLR 33/21 A2988 RMK AO2 SLP117 T03330206
K7N0 222156Z AUTO 22008G17KT 10SM CLR 34/22 A2989 RMK AO2 SLP120 T03390217
K7N0 222056Z AUTO 20011G16KT 10SM FEW043 34/22 A2990 RMK AO2 SLP124 T03440217 56017
K7N0 221956Z AUTO 21009G18KT 10SM FEW041 34/21 A2991 RMK AO2 SLP128 T03440211